Time;durP1;ratioP1;P1;durP2;ratioP2;P2;SDS_P1;SDS_P2;PMS_P1;PMS_P2;Temp;Humidity;BMP_temperature;BMP_pressure;BME280_temperature;BME280_humidity;BME280_pressure;Samples;Min_cycle;Max_cycle;Signal;HPM_P1;HPM_P2
2022/03/31 00:00:29;;;;;;;11.23;7.25;;;;;;;4.85;69.08;100025.97;5060760;28;20123;-89
2022/03/31 00:02:56;;;;;;;10.40;7.40;;;;;;;4.76;69.60;100021.78;5061989;28;20092;-83
2022/03/31 00:05:21;;;;;;;12.13;7.73;;;;;;;4.74;69.95;100018.47;5078388;28;20376;-81
2022/03/31 00:07:55;;;;;;;10.93;7.50;;;;;;;4.76;70.09;100019.09;5063036;28;20082;-83
2022/03/31 00:10:29;;;;;;;13.10;7.82;;;;;;;5.03;70.01;100059.56;5077872;28;20024;-80
2022/03/31 00:12:56;;;;;;;10.52;7.80;;;;;;;4.81;70.26;100023.88;5078895;28;20029;-81
2022/03/31 00:15:23;;;;;;;12.80;7.13;;;;;;;4.77;70.06;100018.06;5065449;28;20036;-85
2022/03/31 00:17:49;;;;;;;10.20;7.20;;;;;;;4.79;70.30;100009.84;5062645;28;20080;-85
2022/03/31 00:20:16;;;;;;;12.13;7.90;;;;;;;4.84;70.34;100032.38;5059846;28;20129;-86
2022/03/31 00:22:42;;;;;;;10.80;7.37;;;;;;;4.77;70.50;100007.31;5078149;28;20119;-88
2022/03/31 00:25:08;;;;;;;12.67;7.87;;;;;;;4.79;70.51;100020.59;5057651;28;20451;-82
2022/03/31 00:27:35;;;;;;;11.97;7.83;;;;;;;4.81;70.78;100013.97;5072796;28;20035;-81
2022/03/31 00:30:02;;;;;;;12.57;8.10;;;;;;;4.78;71.20;100003.63;5068005;28;20032;-83
2022/03/31 00:32:27;;;;;;;11.67;7.43;;;;;;;5.05;70.66;100049.47;5065328;28;20044;-80
2022/03/31 00:34:52;;;;;;;12.00;7.90;;;;;;;4.82;70.78;100009.44;5066698;28;20025;-80
2022/03/31 00:37:18;;;;;;;11.07;8.10;;;;;;;4.84;70.79;100007.38;5071724;28;20043;-81
2022/03/31 00:39:44;;;;;;;12.27;8.10;;;;;;;4.85;70.87;100015.22;5069002;28;20086;-81
2022/03/31 00:42:10;;;;;;;12.30;8.57;;;;;;;4.88;71.30;100022.91;5062581;28;20060;-85
2022/03/31 00:44:36;;;;;;;9.60;7.07;;;;;;;4.80;70.65;100006.97;5064809;28;20112;-82
2022/03/31 00:47:02;;;;;;;11.23;7.60;;;;;;;4.85;71.29;100023.28;5066156;28;20051;-88
2022/03/31 00:49:29;;;;;;;10.70;7.80;;;;;;;4.82;70.96;100015.63;5065746;28;20032;-81
2022/03/31 00:51:57;;;;;;;12.03;8.27;;;;;;;4.93;71.14;100035.75;5064285;28;20028;-83
2022/03/31 00:54:25;;;;;;;12.30;8.50;;;;;;;4.78;71.22;100013.53;5067465;28;20483;-81
2022/03/31 00:56:51;;;;;;;13.33;8.77;;;;;;;4.88;70.89;100030.13;5062802;28;20024;-82
2022/03/31 00:59:20;;;;;;;14.20;9.00;;;;;;;4.87;70.78;100040.03;5062509;28;20436;-81
2022/03/31 01:01:48;;;;;;;15.87;9.37;;;;;;;4.68;70.79;100011.19;5072782;28;20021;-80
2022/03/31 01:04:14;;;;;;;13.83;8.47;;;;;;;4.77;71.76;100018.06;5073236;28;20025;-80
2022/03/31 01:06:42;;;;;;;13.87;8.80;;;;;;;4.70;71.87;100006.44;5069977;28;20024;-81
2022/03/31 01:09:08;;;;;;;15.20;9.03;;;;;;;4.78;72.62;100022.41;5071487;28;20021;-81
2022/03/31 01:11:34;;;;;;;15.27;9.27;;;;;;;4.78;72.47;100027.78;5081842;28;20040;-87
2022/03/31 01:13:59;;;;;;;15.63;9.47;;;;;;;4.57;72.70;99999.97;5069382;28;20028;-87
2022/03/31 01:16:25;;;;;;;15.00;9.90;;;;;;;4.51;73.29;99995.34;5058926;28;20028;-84
2022/03/31 01:18:51;;;;;;;16.63;9.80;;;;;;;4.52;73.58;99998.88;5070077;28;20480;-84
2022/03/31 01:21:54;;;;;;;16.83;10.23;;;;;;;4.74;73.83;100029.19;5069617;28;20103;-81
2022/03/31 01:24:21;;;;;;;17.37;10.40;;;;;;;4.40;74.08;99983.28;5076010;28;20028;-81
2022/03/31 01:26:50;;;;;;;18.57;11.07;;;;;;;4.40;74.23;99985.16;5075082;28;20024;-85
2022/03/31 01:29:15;;;;;;;18.17;11.47;;;;;;;4.43;74.79;99984.75;5071343;28;20033;-78
2022/03/31 01:31:41;;;;;;;18.30;10.93;;;;;;;4.35;74.55;99992.94;5066131;28;20528;-83
2022/03/31 01:34:08;;;;;;;17.97;11.20;;;;;;;4.46;74.76;99999.63;5067731;28;20024;-83
2022/03/31 01:36:34;;;;;;;18.83;11.30;;;;;;;4.52;74.68;100010.44;5069069;28;21295;-80
2022/03/31 01:39:01;;;;;;;18.33;11.30;;;;;;;4.40;75.18;99994.00;5061974;28;20054;-87
2022/03/31 01:41:26;;;;;;;17.27;10.80;;;;;;;4.44;74.91;99997.16;5070300;28;20024;-81
2022/03/31 01:43:52;;;;;;;18.10;10.93;;;;;;;4.47;74.86;99993.25;5063099;28;20180;-81
2022/03/31 01:46:17;;;;;;;17.17;11.07;;;;;;;4.43;75.22;99995.47;5062420;28;20032;-81
2022/03/31 01:48:43;;;;;;;18.87;11.43;;;;;;;4.35;75.85;99987.56;5066087;28;20411;-80
2022/03/31 01:51:08;;;;;;;18.27;11.43;;;;;;;4.33;76.50;99978.91;5066719;28;20776;-81
2022/03/31 01:53:36;;;;;;;18.33;11.33;;;;;;;4.34;77.26;99983.25;5069964;28;20322;-80
2022/03/31 01:56:02;;;;;;;18.23;11.43;;;;;;;4.28;77.75;99979.47;5074226;28;20044;-90
2022/03/31 01:58:27;;;;;;;19.17;11.57;;;;;;;4.37;79.55;99985.53;5065045;28;20033;-83
2022/03/31 02:00:52;;;;;;;19.07;11.70;;;;;;;4.36;79.49;99981.19;5077467;28;20365;-85
2022/03/31 02:03:18;;;;;;;19.80;11.83;;;;;;;4.44;78.71;100009.75;5064947;28;20036;-84
2022/03/31 02:05:44;;;;;;;17.30;11.43;;;;;;;4.36;80.41;99994.59;5062486;28;20040;-83
2022/03/31 02:08:10;;;;;;;18.90;11.77;;;;;;;4.19;80.01;99968.03;5067312;28;21437;-82
2022/03/31 02:10:35;;;;;;;18.93;11.80;;;;;;;4.23;81.36;99974.69;5063834;28;20036;-82
2022/03/31 02:13:01;;;;;;;18.67;11.40;;;;;;;4.25;80.43;99979.84;5067901;28;20063;-81
2022/03/31 02:15:29;;;;;;;18.30;11.30;;;;;;;4.08;82.22;99949.78;5072654;28;20036;-88
2022/03/31 02:17:55;;;;;;;16.80;11.10;;;;;;;4.02;81.04;99953.22;5067134;28;20048;-80
2022/03/31 02:20:21;;;;;;;18.50;11.30;;;;;;;4.25;80.97;99992.44;5066442;28;20472;-85
2022/03/31 02:22:46;;;;;;;19.13;12.10;;;;;;;4.05;81.48;99966.25;5065550;28;20051;-83
2022/03/31 02:25:12;;;;;;;20.13;12.70;;;;;;;4.06;83.06;99955.31;5069060;28;20036;-83
2022/03/31 02:27:38;;;;;;;17.50;11.73;;;;;;;3.95;82.25;99950.47;5067834;28;20527;-83
2022/03/31 02:30:05;;;;;;;18.27;11.63;;;;;;;3.99;83.07;99949.06;5067028;28;20025;-86
2022/03/31 02:32:31;;;;;;;18.13;11.87;;;;;;;3.74;83.99;99931.69;5079117;28;20040;-80
2022/03/31 02:34:57;;;;;;;18.40;12.33;;;;;;;3.86;84.07;99962.34;5063861;28;20055;-83
2022/03/31 02:37:22;;;;;;;18.50;11.67;;;;;;;3.74;84.00;99951.28;5080300;28;20527;-84
2022/03/31 02:39:48;;;;;;;16.80;11.00;;;;;;;3.68;85.01;99942.16;5063590;28;20070;-86
2022/03/31 02:42:14;;;;;;;18.20;11.90;;;;;;;3.67;85.67;99947.69;5062658;28;20506;-82
2022/03/31 02:44:40;;;;;;;19.17;12.80;;;;;;;3.59;86.13;99943.31;5062946;28;20102;-79
2022/03/31 02:47:06;;;;;;;18.50;12.73;;;;;;;3.62;86.05;99947.44;5063845;28;21913;-80
2022/03/31 02:49:31;;;;;;;20.00;13.30;;;;;;;3.57;86.23;99958.72;5064705;28;20490;-81
2022/03/31 02:51:58;;;;;;;18.47;12.20;;;;;;;3.41;86.08;99938.31;5064556;28;20106;-81
2022/03/31 02:57:07;;;;;;;19.60;13.20;;;;;;;3.37;87.59;99935.22;5065687;28;20055;-85
2022/03/31 02:59:33;;;;;;;19.53;13.87;;;;;;;3.37;87.63;99956.63;5065435;28;20036;-85
2022/03/31 03:01:58;;;;;;;18.83;12.37;;;;;;;3.27;86.94;99940.00;5067528;28;20143;-87
2022/03/31 03:04:24;;;;;;;19.30;12.67;;;;;;;3.17;87.07;99936.81;5068803;28;20485;-79
2022/03/31 03:06:50;;;;;;;19.00;13.10;;;;;;;3.14;87.57;99929.13;5067032;28;20029;-79
2022/03/31 03:09:16;;;;;;;18.80;12.67;;;;;;;3.20;87.04;99942.59;5067071;28;20376;-79
2022/03/31 03:11:42;;;;;;;20.43;13.53;;;;;;;3.25;88.03;99934.03;5067260;28;20075;-82
2022/03/31 03:14:09;;;;;;;16.93;12.00;;;;;;;3.25;88.29;99934.03;5066791;28;20162;-80
2022/03/31 03:16:34;;;;;;;14.90;10.27;;;;;;;3.26;88.76;99929.50;5069151;28;20013;-84
2022/03/31 03:19:00;;;;;;;11.40;8.33;;;;;;;3.17;88.43;99913.53;5064467;28;20056;-79
2022/03/31 03:21:25;;;;;;;9.50;6.80;;;;;;;3.23;87.67;99932.56;5066285;28;20030;-86
2022/03/31 03:23:50;;;;;;;10.47;7.23;;;;;;;3.09;87.79;99918.13;5066275;28;20036;-80
2022/03/31 03:26:16;;;;;;;9.67;6.87;;;;;;;3.04;88.13;99927.56;5081778;28;20017;-86
2022/03/31 03:28:42;;;;;;;9.67;7.33;;;;;;;3.20;89.00;99939.91;5065865;28;20514;-84
2022/03/31 03:31:07;;;;;;;10.20;7.37;;;;;;;2.93;88.71;99897.78;5066652;28;20024;-83
2022/03/31 03:33:33;;;;;;;9.30;6.83;;;;;;;2.83;88.83;99890.84;5066150;28;20094;-79
2022/03/31 03:36:00;;;;;;;9.47;7.00;;;;;;;2.76;88.28;99908.66;5065405;28;20039;-82
2022/03/31 03:38:26;;;;;;;8.17;6.80;;;;;;;2.67;88.47;99904.41;5065395;28;20458;-84
2022/03/31 03:40:51;;;;;;;9.10;7.00;;;;;;;2.56;88.88;99907.50;5063507;28;20036;-81
2022/03/31 03:43:17;;;;;;;8.53;6.57;;;;;;;2.36;89.28;99897.34;5061813;28;20456;-85
2022/03/31 03:45:42;;;;;;;8.30;6.77;;;;;;;2.36;89.91;99914.22;5063416;28;20039;-83
2022/03/31 03:48:10;;;;;;;7.40;6.10;;;;;;;2.27;89.75;99925.16;5066305;28;20030;-84
2022/03/31 03:50:36;;;;;;;7.27;6.17;;;;;;;2.18;90.34;99911.88;5068347;28;20094;-83
2022/03/31 03:53:03;;;;;;;8.07;7.17;;;;;;;2.08;90.55;99930.00;5063287;28;20116;-86
2022/03/31 03:55:34;;;;;;;7.73;6.43;;;;;;;1.98;90.87;99921.38;5064271;28;20129;-81
2022/03/31 03:58:00;;;;;;;8.87;6.90;;;;;;;2.09;91.19;99926.31;5063535;28;20395;-83
2022/03/31 04:00:26;;;;;;;7.57;6.63;;;;;;;1.91;90.93;99915.09;5066151;28;20287;-82
2022/03/31 04:02:51;;;;;;;7.13;5.97;;;;;;;2.04;90.92;99942.06;5061012;28;20152;-85
2022/03/31 04:05:17;;;;;;;7.80;6.63;;;;;;;1.83;92.37;99922.16;5062901;28;20282;-86
2022/03/31 04:07:43;;;;;;;8.10;6.60;;;;;;;1.78;92.26;99921.88;5064992;28;20031;-79
2022/03/31 04:10:10;;;;;;;7.73;6.60;;;;;;;1.63;92.38;99915.59;5060987;28;20036;-82
2022/03/31 04:12:36;;;;;;;7.43;6.17;;;;;;;1.88;92.35;99955.50;5062916;28;20566;-85
2022/03/31 04:15:03;;;;;;;8.33;6.57;;;;;;;1.53;93.12;99913.16;5061589;28;20310;-87
2022/03/31 04:17:28;;;;;;;8.57;6.27;;;;;;;1.79;92.65;99944.06;5061295;28;20039;-80
2022/03/31 04:19:54;;;;;;;8.53;6.37;;;;;;;1.64;92.79;99930.63;5064063;28;20318;-83
2022/03/31 04:22:20;;;;;;;8.60;6.63;;;;;;;1.55;93.16;99913.84;5079061;28;20036;-81
2022/03/31 04:24:45;;;;;;;9.53;6.77;;;;;;;1.56;93.27;99917.31;5064842;28;20816;-80
2022/03/31 04:27:10;;;;;;;9.37;7.07;;;;;;;1.67;93.35;99931.13;5062580;28;20460;-81
2022/03/31 04:29:36;;;;;;;8.50;6.67;;;;;;;1.68;93.28;99924.75;5061010;28;20028;-80
2022/03/31 04:32:01;;;;;;;9.20;6.20;;;;;;;1.79;93.05;99928.84;5060097;28;20396;-84
2022/03/31 04:34:27;;;;;;;7.87;6.23;;;;;;;1.93;92.90;99956.66;5075115;28;20036;-84
2022/03/31 04:36:52;;;;;;;7.13;5.97;;;;;;;1.96;92.79;99966.13;5058291;28;20377;-83
2022/03/31 04:39:17;;;;;;;8.77;6.03;;;;;;;1.82;92.77;99936.53;5059002;28;20036;-82
2022/03/31 04:41:43;;;;;;;7.63;6.23;;;;;;;1.79;92.47;99931.53;5058793;28;20543;-83
2022/03/31 04:44:09;;;;;;;8.50;6.13;;;;;;;1.80;93.25;99930.53;5072028;28;20028;-79
2022/03/31 04:46:35;;;;;;;9.40;6.27;;;;;;;1.76;92.56;99920.38;5058942;28;20325;-80
2022/03/31 04:49:01;;;;;;;10.23;6.57;;;;;;;1.78;93.22;99937.03;5074046;28;20051;-82
2022/03/31 04:51:27;;;;;;;9.40;5.87;;;;;;;1.79;92.83;99941.38;5059446;28;20036;-85
2022/03/31 04:53:52;;;;;;;8.00;5.90;;;;;;;1.85;93.25;99936.16;5058550;28;20301;-88
2022/03/31 04:56:17;;;;;;;9.10;6.13;;;;;;;1.82;93.20;99933.00;5062517;28;20037;-83
2022/03/31 04:58:44;;;;;;;8.40;5.67;;;;;;;1.68;92.90;99934.59;5063322;28;20044;-86
2022/03/31 05:01:10;;;;;;;7.60;5.27;;;;;;;1.93;92.56;99966.50;5061258;28;20024;-86
2022/03/31 05:03:37;;;;;;;6.93;4.80;;;;;;;1.82;92.45;99943.69;5063249;28;20380;-82
2022/03/31 05:06:02;;;;;;;10.00;5.97;;;;;;;1.62;92.25;99912.13;5064346;28;20898;-87
2022/03/31 05:08:27;;;;;;;7.73;5.70;;;;;;;1.69;92.16;99925.59;5063099;28;20340;-80
2022/03/31 05:10:53;;;;;;;6.93;5.27;;;;;;;1.68;92.51;99935.44;5061723;28;20040;-80
2022/03/31 05:13:18;;;;;;;6.63;5.47;;;;;;;1.65;92.15;99926.97;5076401;28;20040;-85
2022/03/31 05:15:44;;;;;;;7.00;5.20;;;;;;;1.65;91.77;99938.47;5064507;28;20022;-86
2022/03/31 05:18:09;;;;;;;7.07;5.30;;;;;;;1.59;91.84;99933.00;5062883;28;20053;-87
2022/03/31 05:20:35;;;;;;;6.97;5.27;;;;;;;1.81;91.59;99958.91;5079348;28;20114;-86
2022/03/31 05:23:00;;;;;;;6.13;5.00;;;;;;;1.58;91.83;99942.00;5066555;28;20048;-86
2022/03/31 05:25:25;;;;;;;5.83;4.80;;;;;;;1.55;92.14;99934.34;5064337;28;20034;-86
2022/03/31 05:27:51;;;;;;;6.40;4.97;;;;;;;1.56;92.82;99928.00;5077619;28;20131;-79
2022/03/31 05:30:19;;;;;;;5.17;4.67;;;;;;;1.57;92.56;99954.53;5045699;28;20047;-86
2022/03/31 05:32:46;;;;;;;4.60;4.20;;;;;;;1.41;91.81;99947.41;5067205;28;20402;-79
2022/03/31 05:35:13;;;;;;;5.07;3.87;;;;;;;1.41;92.04;99939.41;5069064;28;20392;-83
2022/03/31 05:37:40;;;;;;;5.70;4.13;;;;;;;1.49;92.06;99966.06;5078469;28;20295;-84
2022/03/31 05:40:07;;;;;;;4.27;3.50;;;;;;;1.23;92.20;99938.84;5076783;28;20824;-85
2022/03/31 05:42:34;;;;;;;5.00;4.00;;;;;;;1.23;92.07;99949.53;5076469;28;20378;-83
2022/03/31 05:45:00;;;;;;;4.97;4.27;;;;;;;1.15;92.88;99937.84;5074612;28;20291;-83
2022/03/31 05:47:26;;;;;;;4.80;4.30;;;;;;;1.20;92.71;99944.50;5076803;28;20302;-83
2022/03/31 05:49:52;;;;;;;4.40;4.00;;;;;;;1.26;92.35;99933.16;5062908;28;20786;-79
2022/03/31 05:52:17;;;;;;;4.97;4.10;;;;;;;1.34;92.59;99965.97;5062477;28;20806;-83
2022/03/31 05:54:43;;;;;;;4.53;4.07;;;;;;;1.02;92.24;99937.59;5062447;28;20071;-81
2022/03/31 05:57:08;;;;;;;4.57;4.17;;;;;;;0.95;92.23;99958.78;5053545;28;20364;-86
2022/03/31 05:59:34;;;;;;;5.63;4.10;;;;;;;0.80;92.67;99948.00;5061280;28;20475;-82
2022/03/31 06:01:59;;;;;;;4.70;4.13;;;;;;;0.92;92.78;99975.09;5061095;28;20507;-84
2022/03/31 06:04:24;;;;;;;4.20;3.60;;;;;;;0.72;93.11;99948.00;5061857;28;20047;-81
2022/03/31 06:06:50;;;;;;;4.63;3.77;;;;;;;0.87;93.51;99971.28;5060682;28;20517;-83
2022/03/31 06:09:16;;;;;;;3.70;3.30;;;;;;;0.82;93.65;99967.31;5061284;28;20051;-83
2022/03/31 06:11:42;;;;;;;4.67;3.77;;;;;;;0.76;93.73;99968.00;5071801;28;20036;-82
2022/03/31 06:14:09;;;;;;;4.87;3.60;;;;;;;0.64;94.33;99948.00;5074841;28;20090;-82
2022/03/31 06:16:35;;;;;;;4.37;3.80;;;;;;;0.62;93.95;99955.34;5068560;28;20278;-83
2022/03/31 06:19:00;;;;;;;5.40;3.77;;;;;;;0.65;94.16;99955.84;5074827;28;20302;-83
2022/03/31 06:21:26;;;;;;;4.57;3.73;;;;;;;0.78;94.44;99976.66;5082345;28;20025;-86
2022/03/31 06:23:51;;;;;;;4.37;3.50;;;;;;;0.65;94.14;99960.31;5087773;28;20040;-84
2022/03/31 06:26:17;;;;;;;4.27;3.87;;;;;;;0.78;94.13;99973.16;5074187;28;20083;-87
2022/03/31 06:28:42;;;;;;;4.50;3.80;;;;;;;0.72;94.39;99956.00;5074484;28;20024;-87
2022/03/31 06:31:07;;;;;;;6.97;4.10;;;;;;;0.77;94.82;99972.31;5089671;28;20040;-85
2022/03/31 06:33:33;;;;;;;5.80;4.33;;;;;;;0.76;94.93;99960.00;5072294;28;20028;-85
2022/03/31 06:35:58;;;;;;;5.47;4.43;;;;;;;0.77;94.70;99968.81;5073976;28;20482;-85
2022/03/31 06:38:24;;;;;;;5.60;4.63;;;;;;;0.80;95.01;99969.31;5074810;28;20115;-87
2022/03/31 06:41:08;;;;;;;5.60;4.37;;;;;;;0.78;94.89;99968.63;5071188;28;20032;-84
2022/03/31 06:43:34;;;;;;;5.00;4.43;;;;;;;0.78;95.00;99963.31;5076533;28;20107;-85
2022/03/31 06:46:00;;;;;;;5.20;4.70;;;;;;;0.57;94.49;99963.84;5092932;28;20036;-85
2022/03/31 06:48:26;;;;;;;5.93;4.57;;;;;;;0.60;95.00;99976.84;5075923;28;20396;-88
2022/03/31 06:50:52;;;;;;;5.20;4.70;;;;;;;0.56;95.07;99974.66;5083263;28;20078;-83
2022/03/31 06:53:18;;;;;;;6.17;5.03;;;;;;;0.57;95.15;99976.34;5078295;28;20368;-85
2022/03/31 06:55:43;;;;;;;6.70;5.53;;;;;;;0.61;95.40;99986.50;5073619;28;20042;-84
2022/03/31 06:58:09;;;;;;;6.27;5.20;;;;;;;0.61;95.44;99975.00;5080644;28;20750;-85
2022/03/31 07:00:34;;;;;;;7.70;6.20;;;;;;;0.57;95.77;99981.66;5071909;28;20074;-84
2022/03/31 07:02:59;;;;;;;8.33;6.20;;;;;;;0.70;95.46;99974.00;5073989;28;20043;-85
2022/03/31 07:05:25;;;;;;;6.90;6.10;;;;;;;0.71;95.95;99967.66;5070158;28;20456;-84
2022/03/31 07:07:50;;;;;;;7.50;5.87;;;;;;;0.80;96.12;99977.31;5069740;28;20029;-82
2022/03/31 07:10:16;;;;;;;6.43;5.37;;;;;;;0.79;96.21;99969.47;5072245;28;20082;-82
2022/03/31 07:12:41;;;;;;;6.40;5.40;;;;;;;0.79;95.68;99978.31;5074143;28;20400;-82
2022/03/31 07:15:08;;;;;;;5.97;5.20;;;;;;;0.76;95.94;99970.66;5078544;28;20016;-81
2022/03/31 07:17:33;;;;;;;7.40;5.90;;;;;;;0.81;96.22;99972.81;5088335;28;20029;-82
2022/03/31 07:19:59;;;;;;;6.20;5.50;;;;;;;0.76;95.85;99976.00;5089826;28;20633;-81
2022/03/31 07:22:24;;;;;;;7.17;5.67;;;;;;;0.75;96.08;99970.81;5089462;28;20483;-82
2022/03/31 07:24:49;;;;;;;7.57;6.13;;;;;;;0.79;96.50;99975.66;5057356;28;20040;-81
2022/03/31 07:27:15;;;;;;;6.73;5.70;;;;;;;0.80;96.74;99979.13;5071542;28;20111;-81
2022/03/31 07:29:41;;;;;;;6.90;5.90;;;;;;;0.74;96.42;99969.16;5088939;28;20048;-85
2022/03/31 07:32:07;;;;;;;7.67;5.60;;;;;;;0.81;96.14;99972.81;5060586;28;20325;-79
2022/03/31 07:34:32;;;;;;;6.67;5.60;;;;;;;0.84;96.41;99964.47;5073220;28;20466;-80
2022/03/31 07:36:59;;;;;;;7.37;6.03;;;;;;;0.94;96.85;99965.13;5071103;28;20033;-82
2022/03/31 07:39:25;;;;;;;8.80;6.40;;;;;;;0.94;97.13;99964.25;5072299;28;20405;-81
2022/03/31 07:41:51;;;;;;;6.80;5.90;;;;;;;0.86;96.62;99953.63;5073899;28;20274;-81
2022/03/31 07:44:16;;;;;;;6.23;5.53;;;;;;;0.97;96.31;99969.28;5085511;28;20486;-80
2022/03/31 07:46:41;;;;;;;7.37;5.60;;;;;;;0.82;96.27;99943.31;5088814;28;20024;-80
2022/03/31 07:49:07;;;;;;;8.70;5.87;;;;;;;0.74;95.97;99937.97;5055979;28;20376;-80
2022/03/31 07:51:32;;;;;;;6.17;5.20;;;;;;;0.86;95.80;99954.47;5080091;28;20062;-82
2022/03/31 07:53:58;;;;;;;5.60;5.00;;;;;;;0.90;96.14;99957.59;5085944;28;20047;-80
2022/03/31 07:56:23;;;;;;;6.37;5.00;;;;;;;0.92;96.26;99952.94;5071110;28;20124;-83
2022/03/31 07:58:49;;;;;;;6.07;5.00;;;;;;;1.03;96.69;99971.25;5077104;28;20032;-81
2022/03/31 08:01:14;;;;;;;8.27;5.40;;;;;;;0.95;97.11;99948.13;5083071;28;20046;-87
2022/03/31 08:03:40;;;;;;;7.10;5.37;;;;;;;1.15;96.81;99967.22;5071889;28;20034;-89
2022/03/31 08:06:08;;;;;;;6.27;5.47;;;;;;;1.11;96.85;99954.41;5057618;28;20021;-86
2022/03/31 08:08:33;;;;;;;6.73;4.87;;;;;;;1.05;96.83;99945.25;5059358;28;20036;-84
2022/03/31 08:10:59;;;;;;;5.57;4.60;;;;;;;1.09;96.12;99961.72;5060265;28;20395;-86
2022/03/31 08:13:28;;;;;;;5.93;5.33;;;;;;;1.10;96.47;99950.91;5076110;28;20041;-87
2022/03/31 08:15:55;;;;;;;5.93;4.97;;;;;;;1.04;96.60;99929.41;5073848;28;20028;-86
2022/03/31 08:18:33;;;;;;;5.90;5.30;;;;;;;1.34;96.68;99957.13;5058765;28;20302;-82
2022/03/31 08:20:59;;;;;;;5.77;5.13;;;;;;;1.19;96.96;99927.69;5059407;28;20642;-86
2022/03/31 08:23:25;;;;;;;7.30;4.77;;;;;;;1.33;96.70;99939.44;5076619;28;20290;-87
2022/03/31 08:25:52;;;;;;;5.83;5.23;;;;;;;1.30;96.41;99942.47;5059558;28;20307;-88
2022/03/31 08:28:18;;;;;;;5.57;5.07;;;;;;;1.31;96.44;99952.16;5063629;28;20044;-82
2022/03/31 08:30:43;;;;;;;5.70;5.20;;;;;;;1.37;96.65;99943.44;5060440;28;20321;-87
2022/03/31 08:33:09;;;;;;;7.20;5.00;;;;;;;1.51;96.73;99961.41;5078404;28;20032;-79
2022/03/31 08:35:35;;;;;;;6.37;5.27;;;;;;;1.55;96.39;99953.88;5071743;28;20029;-79
2022/03/31 08:38:00;;;;;;;5.43;4.87;;;;;;;1.50;96.45;99938.38;5088602;28;20294;-81
2022/03/31 08:40:29;;;;;;;6.57;5.20;;;;;;;1.65;96.38;99948.31;5086871;28;20028;-81
2022/03/31 08:42:55;;;;;;;6.20;5.40;;;;;;;1.66;96.71;99928.63;5070520;28;20039;-81
2022/03/31 08:45:21;;;;;;;6.17;5.57;;;;;;;1.71;96.50;99933.44;5092434;28;20282;-80
2022/03/31 08:47:49;;;;;;;6.10;5.50;;;;;;;1.70;96.23;99919.25;5072453;28;20372;-79
2022/03/31 08:50:16;;;;;;;7.60;6.30;;;;;;;1.86;96.64;99934.31;5072560;28;20850;-80
2022/03/31 08:52:42;;;;;;;6.37;4.93;;;;;;;1.85;95.58;99922.81;5086037;28;20286;-79
2022/03/31 08:55:09;;;;;;;6.17;5.30;;;;;;;1.92;95.00;99933.63;5066009;28;20020;-82
2022/03/31 08:57:43;;;;;;;6.67;5.87;;;;;;;2.11;94.58;99944.81;5078638;28;20043;-81
2022/03/31 09:00:11;;;;;;;6.03;5.40;;;;;;;2.13;94.97;99943.63;5067072;28;20446;-79
2022/03/31 09:02:37;;;;;;;7.80;5.67;;;;;;;2.24;95.00;99953.06;5087598;28;20476;-80
2022/03/31 09:05:10;;;;;;;9.63;6.20;;;;;;;2.24;95.18;99938.91;5071442;28;20028;-81
2022/03/31 09:07:50;;;;;;;6.97;6.10;;;;;;;2.25;94.51;99940.56;5077128;28;20037;-79
2022/03/31 09:10:25;;;;;;;6.37;5.27;;;;;;;2.18;93.68;99933.25;5076361;28;20032;-79
2022/03/31 09:12:50;;;;;;;6.10;4.75;;;;;;;2.10;92.80;99941.34;5074900;28;20078;-79
2022/03/31 09:15:18;;;;;;;6.93;5.37;;;;;;;2.24;93.18;99963.78;5067761;28;20453;-79
2022/03/31 09:17:43;;;;;;;10.03;7.83;;;;;;;2.25;93.88;99956.59;5061054;28;20106;-79
2022/03/31 09:20:09;;;;;;;20.20;15.70;;;;;;;2.50;94.54;99978.59;5077440;28;20128;-80
2022/03/31 09:22:49;;;;;;;13.60;12.20;;;;;;;2.54;94.56;99969.22;5071970;28;20525;-79
2022/03/31 09:25:28;;;;;;;18.07;16.27;;;;;;;2.66;94.79;99958.91;5088471;28;20031;-79
2022/03/31 09:28:39;;;;;;;10.23;9.23;;;;;;;2.83;94.12;99979.13;5097367;28;20355;-80
2022/03/31 09:31:08;;;;;;;6.77;6.03;;;;;;;2.38;91.93;99942.63;5074759;28;20050;-80
2022/03/31 09:33:42;;;;;;;7.60;6.47;;;;;;;2.77;92.99;99979.84;5071601;28;20040;-79
2022/03/31 09:36:13;;;;;;;9.87;6.70;;;;;;;2.74;92.71;99979.41;5073114;28;20044;-91
2022/03/31 09:38:43;;;;;;;17.70;13.93;;;;;;;2.70;93.72;99962.88;5081824;28;20128;-79
2022/03/31 09:41:18;;;;;;;8.97;7.77;;;;;;;2.74;93.94;99944.63;5071770;28;20051;-80
2022/03/31 09:43:43;;;;;;;;;;;;;;;2.98;93.19;99975.66;5075015;28;20024;-81
2022/03/31 09:46:24;;;;;;;18.57;16.73;;;;;;;2.80;92.24;99967.97;5074214;28;19921;-80
2022/03/31 09:48:51;;;;;;;11.67;10.47;;;;;;;2.87;92.88;99964.38;5070397;28;20044;-82
2022/03/31 09:51:19;;;;;;;7.07;6.30;;;;;;;2.74;92.53;99944.63;5082363;28;20029;-82
2022/03/31 09:53:48;;;;;;;8.40;6.47;;;;;;;2.82;92.99;99939.19;5072925;28;20040;-80
2022/03/31 09:56:20;;;;;;;5.57;5.07;;;;;;;2.82;91.67;99945.38;5073999;28;20066;-80
2022/03/31 09:59:07;;;;;;;6.87;6.17;;;;;;;2.98;91.85;99970.31;5076098;28;20032;-83
2022/03/31 10:01:34;;;;;;;7.40;6.60;;;;;;;2.71;92.65;99932.44;5089085;28;20135;-80
2022/03/31 10:03:59;;;;;;;8.40;7.60;;;;;;;2.98;92.50;99959.59;5066978;28;20021;-79
2022/03/31 10:06:26;;;;;;;9.40;8.27;;;;;;;3.14;92.74;99970.13;5069439;28;20094;-87
2022/03/31 10:08:53;;;;;;;8.47;7.00;;;;;;;3.09;92.65;99926.16;5074105;28;20062;-81
2022/03/31 10:11:21;;;;;;;6.07;5.47;;;;;;;2.96;91.51;99941.03;5077060;28;20480;-82
2022/03/31 10:14:25;;;;;;;6.10;5.50;;;;;;;3.18;91.75;99976.78;5075620;28;20456;-81
2022/03/31 10:20:14;;;;;;;6.90;5.50;;;;;;;2.88;91.46;99930.41;5076408;28;20105;-82
2022/03/31 10:29:16;;;;;;;7.63;6.83;;;;;;;2.92;90.88;99928.22;5069370;28;20040;-82
2022/03/31 10:31:44;;;;;;;7.63;6.83;;;;;;;3.08;91.41;99944.09;5085586;28;20170;-81
2022/03/31 10:34:11;;;;;;;8.33;7.53;;;;;;;3.13;91.66;99935.50;5068996;28;20040;-86
2022/03/31 10:36:47;;;;;;;7.37;6.67;;;;;;;3.14;91.12;99935.31;5074180;28;20055;-81
2022/03/31 10:39:19;;;;;;;7.70;6.90;;;;;;;2.98;90.86;99932.84;5085605;28;20078;-83
2022/03/31 10:41:45;;;;;;;7.10;6.10;;;;;;;2.77;90.82;99929.03;5075225;28;20020;-81
2022/03/31 10:47:34;;;;;;;6.67;5.97;;;;;;;2.71;92.49;99932.44;5073291;28;20043;-82
2022/03/31 10:49:59;;;;;;;8.97;6.93;;;;;;;2.83;92.96;99927.50;5074058;28;20040;-80
2022/03/31 10:52:27;;;;;;;8.40;7.10;;;;;;;3.07;93.06;99938.91;5072108;28;20055;-81
2022/03/31 10:55:32;;;;;;;8.53;7.20;;;;;;;3.34;93.07;99961.53;5077760;28;20025;-81
2022/03/31 11:01:28;;;;;;;10.13;9.07;;;;;;;3.26;91.07;99929.50;5078180;28;20046;-83
2022/03/31 11:04:03;;;;;;;9.33;8.43;;;;;;;3.22;90.63;99921.00;5075630;28;20030;-86
2022/03/31 11:06:52;;;;;;;7.47;6.28;;;;;;;3.31;91.02;99961.91;5081020;28;20032;-83
2022/03/31 11:09:29;;;;;;;8.10;7.20;;;;;;;3.17;92.06;99937.63;5070326;28;20031;-81
2022/03/31 11:11:56;;;;;;;6.83;6.13;;;;;;;3.00;90.54;99920.09;5076919;28;20020;-80
2022/03/31 11:14:23;;;;;;;9.40;7.77;;;;;;;3.08;93.00;99911.97;5070887;28;20051;-81
2022/03/31 11:16:48;;;;;;;6.90;6.20;;;;;;;3.10;91.69;99920.66;5071721;28;20075;-81
2022/03/31 11:19:36;;;;;;;9.73;6.73;;;;;;;3.37;91.39;99963.81;5067947;28;20040;-81
2022/03/31 11:22:03;;;;;;;7.60;6.80;;;;;;;3.42;91.88;99955.25;5074962;28;20039;-83
2022/03/31 11:24:28;;;;;;;7.43;6.70;;;;;;;3.18;91.12;99917.03;5082639;28;20039;-83
2022/03/31 11:26:54;;;;;;;11.83;9.13;;;;;;;3.16;91.28;99917.22;5079864;28;20020;-82
2022/03/31 11:29:24;;;;;;;6.83;5.73;;;;;;;3.12;91.46;99913.25;5073758;28;20059;-84
2022/03/31 11:31:51;;;;;;;8.10;6.70;;;;;;;3.32;91.23;99940.28;5064034;28;20442;-85
2022/03/31 11:34:23;;;;;;;8.90;8.00;;;;;;;3.29;91.50;99915.72;5070883;28;20349;-82
2022/03/31 11:36:51;;;;;;;6.57;5.63;;;;;;;3.16;90.00;99903.84;5086902;28;20017;-84
2022/03/31 11:39:19;;;;;;;6.50;5.90;;;;;;;3.08;90.19;99909.28;5074184;28;20147;-83
2022/03/31 11:41:45;;;;;;;9.00;7.50;;;;;;;3.26;91.07;99916.94;5065563;28;20395;-84
2022/03/31 11:44:11;;;;;;;6.97;5.87;;;;;;;3.19;90.26;99911.47;5083109;28;20055;-81
2022/03/31 11:46:41;;;;;;;6.50;5.83;;;;;;;3.26;91.30;99940.19;5067388;28;20036;-88
2022/03/31 11:49:20;;;;;;;6.97;6.13;;;;;;;2.99;91.69;99897.88;5079206;28;20464;-85
2022/03/31 11:51:51;;;;;;;7.10;6.23;;;;;;;3.14;92.67;99916.59;5080400;28;20075;-86
2022/03/31 11:54:17;;;;;;;7.53;6.77;;;;;;;3.20;93.06;99891.72;5062747;28;20036;-85
2022/03/31 11:56:44;;;;;;;8.50;7.00;;;;;;;3.46;93.30;99933.25;5073036;28;20395;-82